createdAt,value
2023-09-27T00:00:36.981Z,1009.69
2023-09-27T00:05:41.215Z,1009.79
2023-09-27T00:10:45.293Z,1009.74
2023-09-27T00:15:49.450Z,1009.82
2023-09-27T00:20:53.597Z,1009.92
2023-09-27T00:25:57.802Z,1009.79
2023-09-27T00:31:01.922Z,1009.70
2023-09-27T00:36:06.120Z,1009.70
2023-09-27T00:41:10.259Z,1009.77
2023-09-27T00:46:14.449Z,1009.82
2023-09-27T00:51:18.579Z,1009.72
2023-09-27T00:56:22.777Z,1009.83
2023-09-27T01:01:26.930Z,1009.90
2023-09-27T01:06:31.014Z,1009.99
2023-09-27T01:11:35.239Z,1010.14
2023-09-27T01:16:39.491Z,1010.17
2023-09-27T01:21:43.543Z,1010.06
2023-09-27T01:26:47.665Z,1010.09
2023-09-27T01:31:51.978Z,1010.20
2023-09-27T01:36:55.994Z,1010.26
2023-09-27T01:42:00.221Z,1010.41
2023-09-27T01:47:04.413Z,1010.24
2023-09-27T01:52:08.523Z,1010.11
2023-09-27T01:57:12.694Z,1010.32
2023-09-27T02:02:16.882Z,1010.27
2023-09-27T02:07:19.075Z,1010.40
2023-09-27T02:12:23.259Z,1010.39
2023-09-27T02:17:27.560Z,1010.30
2023-09-27T02:22:31.562Z,1010.39
2023-09-27T02:27:35.734Z,1010.42
2023-09-27T02:32:39.968Z,1010.35
2023-09-27T02:37:44.091Z,1010.49
2023-09-27T02:42:48.289Z,1010.41
2023-09-27T02:47:52.422Z,1010.36
2023-09-27T02:52:56.656Z,1010.27
2023-09-27T02:58:00.731Z,1010.21
2023-09-27T03:03:04.973Z,1010.17
2023-09-27T03:08:09.078Z,1009.89
2023-09-27T03:13:13.148Z,1009.86
2023-09-27T03:18:17.363Z,1009.82
2023-09-27T03:23:21.553Z,1009.91
2023-09-27T03:28:25.650Z,1009.90
2023-09-27T03:33:29.877Z,1009.86
2023-09-27T03:38:33.992Z,1009.91
2023-09-27T03:43:38.163Z,1010.04
2023-09-27T03:48:42.288Z,1010.03
2023-09-27T03:53:46.492Z,1009.98
2023-09-27T03:58:50.628Z,1009.87
2023-09-27T04:03:54.890Z,1009.72
2023-09-27T04:08:59.064Z,1009.79
2023-09-27T04:19:07.273Z,1009.91
2023-09-27T04:24:11.426Z,1009.92
2023-09-27T04:29:15.638Z,1009.96
2023-09-27T04:34:19.758Z,1009.94
2023-09-27T04:39:23.949Z,1009.97
2023-09-27T04:44:29.715Z,1009.94
2023-09-27T04:49:32.268Z,1010.13
2023-09-27T04:54:36.434Z,1010.25
2023-09-27T04:59:40.554Z,1010.16
2023-09-27T05:04:44.737Z,1010.18
2023-09-27T05:09:48.874Z,1010.24
2023-09-27T05:14:53.052Z,1010.37
2023-09-27T05:19:57.315Z,1010.23
2023-09-27T05:25:01.388Z,1010.14
2023-09-27T05:30:05.534Z,1010.14
2023-09-27T05:35:09.744Z,1010.20
2023-09-27T05:40:13.959Z,1010.22
2023-09-27T05:45:18.094Z,1010.10
2023-09-27T05:50:22.269Z,1010.17
2023-09-27T05:55:26.338Z,1010.24
2023-09-27T06:00:30.500Z,1010.17
2023-09-27T06:05:34.694Z,1010.30
2023-09-27T06:10:38.847Z,1010.30
2023-09-27T06:15:43.000Z,1010.36
2023-09-27T06:20:47.159Z,1010.37
2023-09-27T06:25:51.305Z,1010.44
2023-09-27T06:30:55.534Z,1010.38
2023-09-27T06:35:59.630Z,1010.43
2023-09-27T06:41:03.872Z,1010.59
2023-09-27T06:46:07.977Z,1010.44
2023-09-27T06:51:12.114Z,1010.44
2023-09-27T06:56:16.296Z,1010.57
2023-09-27T07:01:20.498Z,1010.65
2023-09-27T07:06:24.603Z,1010.48
2023-09-27T07:11:28.801Z,1010.63
2023-09-27T07:16:34.510Z,1010.67
2023-09-27T07:21:37.108Z,1010.38
2023-09-27T07:26:41.302Z,1010.30
2023-09-27T07:31:45.414Z,1010.21
2023-09-27T07:36:47.724Z,1010.38
2023-09-27T07:41:51.903Z,1010.40
2023-09-27T07:46:56.141Z,1010.31
2023-09-27T07:52:00.372Z,1010.37
2023-09-27T07:57:04.364Z,1010.37
2023-09-27T08:02:08.534Z,1010.35
2023-09-27T08:07:12.648Z,1010.46
2023-09-27T08:12:16.844Z,1010.43
2023-09-27T08:17:21.005Z,1010.33
2023-09-27T08:22:25.127Z,1010.19
2023-09-27T08:27:29.259Z,1010.04
2023-09-27T08:32:33.492Z,1010.19
2023-09-27T08:37:37.616Z,1010.09
2023-09-27T08:42:41.767Z,1009.96
2023-09-27T08:47:46.098Z,1010.00
2023-09-27T08:52:50.142Z,1009.96
2023-09-27T08:57:54.220Z,1009.83
2023-09-27T09:02:59.636Z,1009.97
2023-09-27T09:08:02.587Z,1009.86
2023-09-27T09:13:06.696Z,1009.70
2023-09-27T09:18:10.943Z,1009.81
2023-09-27T09:23:15.271Z,1009.68
2023-09-27T09:28:19.253Z,1009.76
2023-09-27T09:33:23.566Z,1009.70
2023-09-27T09:38:27.692Z,1009.63
2023-09-27T09:43:31.686Z,1009.50
2023-09-27T09:48:36.459Z,1009.59
2023-09-27T09:53:40.249Z,1009.57
2023-09-27T09:58:44.175Z,1009.37
2023-09-27T10:03:48.432Z,1009.36
2023-09-27T10:08:52.784Z,1009.42
2023-09-27T10:13:56.659Z,1009.46
2023-09-27T10:19:00.801Z,1009.37
2023-09-27T10:24:04.952Z,1009.27
2023-09-27T10:29:09.303Z,1009.32
2023-09-27T10:34:13.271Z,1009.27
2023-09-27T10:39:17.391Z,1009.18
2023-09-27T10:44:21.620Z,1009.16
2023-09-27T10:50:03.087Z,1009.23
2023-09-27T10:55:07.238Z,1009.20
2023-09-27T11:00:11.424Z,1009.22
2023-09-27T11:05:15.602Z,1009.21
2023-09-27T11:10:19.739Z,1009.22
2023-09-27T11:15:23.919Z,1009.07
2023-09-27T11:20:28.048Z,1009.08
2023-09-27T11:25:32.194Z,1008.91
2023-09-27T11:30:36.690Z,1008.79
2023-09-27T11:35:40.562Z,1008.74
2023-09-27T11:40:45.093Z,1008.70
2023-09-27T11:45:49.262Z,1008.64
2023-09-27T11:50:53.032Z,1008.55
2023-09-27T11:55:57.139Z,1008.55
2023-09-27T12:01:01.366Z,1008.48
2023-09-27T12:06:05.776Z,1008.43
2023-09-27T12:11:09.992Z,1008.39
2023-09-27T12:16:13.989Z,1008.27
2023-09-27T12:21:17.998Z,1008.26
2023-09-27T12:26:20.252Z,1008.12
2023-09-27T12:31:24.415Z,1008.09
2023-09-27T12:36:28.525Z,1007.94
2023-09-27T12:41:32.694Z,1007.84
2023-09-27T12:46:36.876Z,1007.82
2023-09-27T12:51:49.560Z,1007.79
2023-09-27T12:56:45.171Z,1007.68
2023-09-27T13:01:49.360Z,1007.75
2023-09-27T13:06:53.500Z,1007.67
2023-09-27T13:11:57.713Z,1007.67
2023-09-27T13:17:01.792Z,1007.56
2023-09-27T13:22:05.976Z,1007.50
2023-09-27T13:27:10.121Z,1007.31
2023-09-27T13:32:14.377Z,1007.36
2023-09-27T13:37:18.449Z,1007.33
2023-09-27T13:42:22.614Z,1007.17
2023-09-27T13:47:26.821Z,1007.17
2023-09-27T13:52:30.907Z,1007.19
2023-09-27T13:57:35.103Z,1007.09
2023-09-27T14:02:40.458Z,1007.10
2023-09-27T14:07:41.592Z,1007.07
2023-09-27T14:12:43.773Z,1007.04
2023-09-27T14:17:48.010Z,1007.02
2023-09-27T14:22:52.231Z,1006.96
2023-09-27T14:27:56.250Z,1006.93
2023-09-27T14:33:00.531Z,1006.86
2023-09-27T14:38:04.605Z,1006.81
2023-09-27T14:43:08.721Z,1006.82
2023-09-27T14:48:12.946Z,1006.77
2023-09-27T14:53:17.030Z,1006.64
2023-09-27T14:58:21.185Z,1006.57
2023-09-27T15:03:25.600Z,1006.70
2023-09-27T15:08:29.536Z,1006.55
2023-09-27T15:13:33.706Z,1006.59
2023-09-27T15:18:37.896Z,1006.57
2023-09-27T15:23:41.980Z,1006.63
2023-09-27T15:28:46.247Z,1006.61
2023-09-27T15:33:50.348Z,1006.65
2023-09-27T15:38:54.483Z,1006.64
2023-09-27T15:43:58.696Z,1006.56
2023-09-27T15:49:02.859Z,1006.60
2023-09-27T15:54:17.531Z,1006.51
2023-09-27T15:59:09.217Z,1006.50
2023-09-27T16:04:13.383Z,1006.47
2023-09-27T16:09:17.525Z,1006.44
2023-09-27T16:14:21.763Z,1006.29
2023-09-27T16:19:25.880Z,1006.26
2023-09-27T16:24:30.052Z,1006.29
2023-09-27T16:29:34.219Z,1006.22
2023-09-27T16:34:38.395Z,1006.20
2023-09-27T16:39:42.550Z,1006.16
2023-09-27T16:44:46.648Z,1006.16
2023-09-27T16:49:50.800Z,1006.14
2023-09-27T16:54:55.019Z,1006.18
2023-09-27T16:59:59.136Z,1006.09
2023-09-27T17:05:03.351Z,1006.05
2023-09-27T17:10:08.869Z,1006.19
2023-09-27T17:15:11.628Z,1006.26
2023-09-27T17:20:15.829Z,1006.17
2023-09-27T17:25:19.916Z,1006.12
2023-09-27T17:30:24.110Z,1006.04
2023-09-27T17:35:26.374Z,1006.00
2023-09-27T17:40:30.567Z,1005.95
2023-09-27T17:45:34.737Z,1005.87
2023-09-27T17:50:38.890Z,1005.80
2023-09-27T17:55:43.042Z,1005.67
2023-09-27T18:00:47.176Z,1005.81
2023-09-27T18:05:51.331Z,1005.72
2023-09-27T18:10:55.631Z,1005.65
2023-09-27T18:15:59.777Z,1005.57
2023-09-27T18:21:03.864Z,1005.67
2023-09-27T18:26:07.948Z,1005.55
2023-09-27T18:31:12.231Z,1005.58
2023-09-27T18:36:16.257Z,1005.66
2023-09-27T18:41:20.450Z,1005.69
2023-09-27T18:46:24.712Z,1005.66
2023-09-27T18:51:28.779Z,1005.71
2023-09-27T18:56:32.905Z,1005.72
2023-09-27T19:01:37.240Z,1005.79
2023-09-27T19:06:41.241Z,1005.81
2023-09-27T19:11:45.391Z,1005.70
2023-09-27T19:16:47.712Z,1005.69
2023-09-27T19:21:49.966Z,1005.63
2023-09-27T19:26:54.141Z,1005.57
2023-09-27T19:31:58.369Z,1005.53
2023-09-27T19:37:02.413Z,1005.57
2023-09-27T19:42:06.616Z,1005.45
2023-09-27T19:47:10.762Z,1005.39
2023-09-27T19:52:14.901Z,1005.32
2023-09-27T19:57:19.119Z,1005.15
2023-09-27T20:02:23.332Z,1005.18
2023-09-27T20:07:27.505Z,1005.15
2023-09-27T20:12:31.565Z,1005.11
2023-09-27T20:17:35.772Z,1005.12
2023-09-27T20:22:39.922Z,1004.99
2023-09-27T20:27:43.993Z,1005.04
2023-09-27T20:32:48.181Z,1005.00
2023-09-27T20:37:52.397Z,1005.00
2023-09-27T20:42:54.593Z,1005.02
2023-09-27T20:47:58.856Z,1005.20
2023-09-27T20:53:02.969Z,1005.21
2023-09-27T20:58:07.110Z,1005.13
2023-09-27T21:03:09.445Z,1005.21
2023-09-27T21:08:13.517Z,1005.08
2023-09-27T21:13:17.687Z,1005.03
2023-09-27T21:18:21.851Z,1005.14
2023-09-27T21:23:25.982Z,1005.16
2023-09-27T21:28:30.197Z,1005.09
2023-09-27T21:33:34.310Z,1005.11
2023-09-27T21:38:38.486Z,1005.05
2023-09-27T21:43:42.673Z,1004.82
2023-09-27T21:48:46.796Z,1004.72
2023-09-27T21:53:51.009Z,1004.70
2023-09-27T21:58:55.214Z,1004.68
2023-09-27T22:03:59.341Z,1004.49
2023-09-27T22:09:03.470Z,1004.43
2023-09-27T22:14:07.633Z,1004.44
2023-09-27T22:19:11.757Z,1004.34
2023-09-27T22:24:15.973Z,1004.39
2023-09-27T22:29:20.095Z,1004.47
2023-09-27T22:34:25.191Z,1004.39
2023-09-27T22:39:28.376Z,1004.32
2023-09-27T22:44:30.674Z,1004.26
2023-09-27T22:49:34.835Z,1004.17
2023-09-27T22:54:39.010Z,1003.99
2023-09-27T22:59:43.170Z,1003.79
2023-09-27T23:04:47.358Z,1003.74
2023-09-27T23:09:51.454Z,1003.82
2023-09-27T23:14:55.620Z,1003.80
2023-09-27T23:19:59.852Z,1003.92
2023-09-27T23:25:03.932Z,1003.83
2023-09-27T23:30:08.193Z,1003.94
2023-09-27T23:35:12.248Z,1003.78
2023-09-27T23:40:16.445Z,1003.83
2023-09-27T23:45:20.637Z,1003.86
2023-09-27T23:50:24.737Z,1003.77
2023-09-27T23:55:28.875Z,1003.80
